KNXP

Details ICAO KNXP (NXP)
Name TWENTYNINE PALMS EAF
Region United States
Timezone America/Los_Angeles (UTC-8.0)
Plans Departing 18
Arriving 10
Stats Elevation 2,051 ft / 625 m (AMSL)
Location 34.296110° -116.162096°
Runways 1
Magnetic Variation 11.585° E
Sunrise 2017-12-15 14:45:04 UTC / 2017-12-15 06:45:04 Local
Sunset 2017-12-16 00:37:38 UTC / 2017-12-15 16:37:38 Local
Advertisement - Login to hide

Runways

ID Width Length Bearing (true) Bearing (mag) Surface Threshold Offset Overrun Length
10 150 ft / 46 m 8,006 ft / 2,440 m 112.39° 100.81° Dirt 0 ft / 0 m 0 ft / 0 m
28 150 ft / 46 m 8,006 ft / 2,440 m 292.40° 280.82° Dirt 0 ft / 0 m 0 ft / 0 m

Map

Weather


0- 5 10 15 20 25 30 35+ Temperature / ° C

Clouds and Precipitation
Forecast for 2017-12-15 12:00 UTC. Updated an hour ago

Ground ~20,000 ft ~40,000 ft Winds

METAR

KNXP 150956Z AUTO 27004KT 10SM CLR 08/M11 A3032 RMK AO2 SLP246 T00781111

TAF

TAF KNXP 1509/1609 30008KT 9999 SKC QNH3030INS BECMG 1516/1518 VRB05KT 9999 SKC QNH3020INS T04/1515Z T19/1522Z

Frequencies

Tower 135.52 MHz TWR
Warning: Do not use this data for real-world aviation or navigation. No guarantee of current accuracy is given.